createdAt,value
2018-08-22T00:02:09.346Z,18.72
2018-08-22T00:05:14.927Z,18.66
2018-08-22T00:08:53.326Z,18.69
2018-08-22T00:11:58.694Z,18.67
2018-08-22T00:15:04.739Z,18.47
2018-08-22T00:18:10.249Z,18.24
2018-08-22T00:21:15.633Z,18.37
2018-08-22T00:24:20.978Z,18.38
2018-08-22T00:27:26.321Z,18.42
2018-08-22T00:30:31.708Z,18.43
2018-08-22T00:33:37.222Z,18.38
2018-08-22T00:36:42.609Z,18.31
2018-08-22T00:39:47.968Z,18.13
2018-08-22T00:42:53.291Z,18.18
2018-08-22T00:45:58.639Z,18.21
2018-08-22T00:49:03.982Z,18.19
2018-08-22T00:52:09.330Z,18.10
2018-08-22T00:55:14.841Z,18.20
2018-08-22T00:58:20.178Z,18.25
2018-08-22T01:01:25.578Z,18.23
2018-08-22T01:04:30.943Z,18.21
2018-08-22T01:07:36.289Z,18.17
2018-08-22T01:10:41.642Z,18.17
2018-08-22T01:13:46.977Z,18.15
2018-08-22T01:16:52.329Z,18.06
2018-08-22T01:19:57.818Z,18.01
2018-08-22T01:23:03.141Z,18.09
2018-08-22T01:26:08.492Z,18.09
2018-08-22T01:29:14.049Z,18.17
2018-08-22T01:32:19.477Z,18.08
2018-08-22T01:35:24.821Z,18.10
2018-08-22T01:38:30.505Z,17.98
2018-08-22T01:41:36.130Z,17.98
2018-08-22T01:44:41.459Z,18.00
2018-08-22T01:47:46.814Z,17.99
2018-08-22T01:50:52.158Z,18.01
2018-08-22T01:53:57.481Z,18.00
2018-08-22T01:57:02.953Z,18.04
2018-08-22T02:00:09.238Z,17.88
2018-08-22T02:03:14.614Z,17.90
2018-08-22T02:06:19.965Z,17.83
2018-08-22T02:09:25.301Z,17.83
2018-08-22T02:12:30.695Z,17.78
2018-08-22T02:15:36.053Z,17.76
2018-08-22T02:18:41.389Z,17.63
2018-08-22T02:21:46.782Z,17.63
2018-08-22T02:24:52.134Z,17.67
2018-08-22T02:27:57.495Z,17.70
2018-08-22T02:31:02.871Z,17.75
2018-08-22T02:34:08.214Z,17.58
2018-08-22T02:37:13.581Z,17.60
2018-08-22T02:40:18.932Z,17.62
2018-08-22T02:43:24.617Z,17.63
2018-08-22T02:46:29.999Z,17.60
2018-08-22T02:49:35.354Z,17.60
2018-08-22T02:52:40.751Z,17.66
2018-08-22T02:55:46.085Z,17.57
2018-08-22T02:58:51.555Z,17.54
2018-08-22T03:01:56.918Z,17.55
2018-08-22T03:05:02.262Z,17.55
2018-08-22T03:08:07.629Z,17.57
2018-08-22T03:11:13.018Z,17.56
2018-08-22T03:14:18.366Z,17.54
2018-08-22T03:17:23.740Z,17.42
2018-08-22T03:20:29.094Z,17.41
2018-08-22T03:23:34.451Z,17.46
2018-08-22T03:26:39.813Z,17.42
2018-08-22T03:29:45.155Z,17.39
2018-08-22T03:32:50.514Z,17.42
2018-08-22T03:35:55.847Z,17.33
2018-08-22T03:39:01.206Z,17.38
2018-08-22T03:42:06.550Z,17.41
2018-08-22T03:45:11.938Z,17.41
2018-08-22T03:48:17.610Z,17.37
2018-08-22T03:51:22.982Z,17.32
2018-08-22T03:54:28.361Z,17.24
2018-08-22T03:57:33.757Z,17.31
2018-08-22T04:00:39.103Z,17.32
2018-08-22T04:03:44.478Z,17.29
2018-08-22T04:06:49.831Z,17.24
2018-08-22T04:09:55.170Z,17.27
2018-08-22T04:13:00.522Z,17.31
2018-08-22T04:16:05.873Z,17.25
2018-08-22T04:19:11.242Z,17.24
2018-08-22T04:22:16.682Z,17.28
2018-08-22T04:25:22.056Z,17.30
2018-08-22T04:28:27.411Z,17.26
2018-08-22T04:31:32.834Z,17.28
2018-08-22T04:34:38.186Z,17.22
2018-08-22T04:37:43.623Z,17.18
2018-08-22T04:40:49.299Z,17.16
2018-08-22T04:43:54.653Z,17.15
2018-08-22T04:46:59.981Z,17.19
2018-08-22T04:50:05.723Z,17.23
2018-08-22T04:53:11.082Z,17.20
2018-08-22T04:56:16.433Z,17.27
2018-08-22T04:59:21.809Z,17.19
2018-08-22T05:02:27.158Z,17.18
2018-08-22T05:05:32.486Z,17.26
2018-08-22T05:08:37.838Z,17.27
2018-08-22T05:11:43.163Z,17.34
2018-08-22T05:14:48.898Z,17.37
2018-08-22T05:17:54.262Z,17.32
2018-08-22T05:20:59.622Z,17.35
2018-08-22T05:24:04.978Z,17.41
2018-08-22T05:27:10.305Z,17.49
2018-08-22T05:30:15.752Z,17.65
2018-08-22T05:33:21.249Z,17.82
2018-08-22T05:36:26.590Z,17.91
2018-08-22T05:39:31.958Z,17.99
2018-08-22T05:42:37.452Z,18.23
2018-08-22T05:45:42.806Z,18.61
2018-08-22T05:48:48.767Z,19.05
2018-08-22T05:51:54.134Z,19.45
2018-08-22T05:54:59.505Z,19.81
2018-08-22T05:58:04.873Z,20.07
2018-08-22T06:01:10.221Z,20.00
2018-08-22T06:04:15.597Z,19.78
2018-08-22T06:07:20.946Z,19.67
2018-08-22T06:10:26.318Z,19.60
2018-08-22T06:13:31.683Z,19.63
2018-08-22T06:16:37.056Z,19.71
2018-08-22T06:19:42.467Z,19.67
2018-08-22T06:22:47.830Z,19.59
2018-08-22T06:25:53.195Z,19.51
2018-08-22T06:28:58.930Z,19.46
2018-08-22T06:32:04.286Z,19.41
2018-08-22T06:35:09.963Z,19.39
2018-08-22T06:38:15.722Z,19.46
2018-08-22T06:41:21.186Z,19.43
2018-08-22T06:44:26.562Z,19.42
2018-08-22T06:47:31.914Z,19.49
2018-08-22T06:50:37.353Z,19.60
2018-08-22T06:53:42.868Z,19.59
2018-08-22T06:56:48.217Z,19.64
2018-08-22T06:59:54.096Z,19.62
2018-08-22T07:03:11.038Z,19.73
2018-08-22T07:06:16.651Z,19.77
2018-08-22T07:09:22.046Z,19.86
2018-08-22T07:12:27.413Z,20.04
2018-08-22T07:15:32.838Z,20.04
2018-08-22T07:18:38.224Z,20.18
2018-08-22T07:21:43.651Z,20.18
2018-08-22T07:24:49.020Z,20.20
2018-08-22T07:27:54.425Z,20.33
2018-08-22T07:31:00.392Z,20.51
2018-08-22T07:34:06.243Z,20.62
2018-08-22T07:37:11.581Z,20.79
2018-08-22T07:40:16.961Z,20.95
2018-08-22T07:43:22.546Z,21.13
2018-08-22T07:46:27.899Z,21.44
2018-08-22T07:49:33.256Z,21.91
2018-08-22T07:52:43.974Z,22.57
2018-08-22T07:55:49.325Z,23.03
2018-08-22T07:59:11.375Z,23.11
2018-08-22T08:02:16.711Z,23.23
2018-08-22T08:05:22.182Z,23.79
2018-08-22T08:08:27.524Z,24.49
2018-08-22T08:11:33.210Z,24.89
2018-08-22T08:14:38.758Z,24.63
2018-08-22T08:17:44.113Z,24.49
2018-08-22T08:20:49.529Z,24.36
2018-08-22T08:23:54.966Z,24.17
2018-08-22T08:27:00.338Z,24.13
2018-08-22T08:30:07.405Z,24.06
2018-08-22T08:33:15.206Z,23.96
2018-08-22T08:36:20.698Z,23.88
2018-08-22T08:39:26.113Z,23.85
2018-08-22T08:42:31.498Z,23.88
2018-08-22T08:45:38.314Z,23.94
2018-08-22T08:48:43.665Z,23.95
2018-08-22T08:51:59.687Z,24.00
2018-08-22T08:55:05.418Z,24.05
2018-08-22T08:58:10.766Z,24.06
2018-08-22T09:01:16.134Z,23.92
2018-08-22T09:04:21.979Z,23.99
2018-08-22T09:07:27.345Z,23.99
2018-08-22T09:10:32.721Z,24.08
2018-08-22T09:13:44.550Z,24.17
2018-08-22T09:16:50.072Z,24.31
2018-08-22T09:19:55.501Z,24.41
2018-08-22T09:23:00.998Z,24.39
2018-08-22T09:26:07.138Z,24.50
2018-08-22T09:29:12.825Z,24.56
2018-08-22T09:32:18.202Z,24.63
2018-08-22T09:35:24.224Z,24.62
2018-08-22T09:38:29.774Z,24.69
2018-08-22T09:41:35.217Z,24.81
2018-08-22T09:44:40.566Z,24.91
2018-08-22T09:47:45.936Z,24.96
2018-08-22T09:50:51.356Z,25.01
2018-08-22T09:53:56.994Z,25.13
2018-08-22T09:57:02.362Z,25.23
2018-08-22T10:00:12.492Z,25.32
2018-08-22T10:03:18.070Z,25.43
2018-08-22T10:06:36.585Z,25.77
2018-08-22T10:09:42.009Z,26.19
2018-08-22T10:12:47.377Z,26.43
2018-08-22T10:15:52.750Z,26.80
2018-08-22T10:18:58.666Z,27.15
2018-08-22T10:22:04.293Z,27.36
2018-08-22T10:25:09.641Z,27.45
2018-08-22T10:28:15.162Z,27.53
2018-08-22T10:31:20.518Z,27.67
2018-08-22T10:34:25.974Z,27.92
2018-08-22T10:37:31.345Z,28.02
2018-08-22T10:40:36.701Z,28.02
2018-08-22T10:43:42.121Z,28.13
2018-08-22T10:46:47.466Z,27.91
2018-08-22T10:49:52.842Z,28.03
2018-08-22T10:52:58.219Z,28.42
2018-08-22T10:56:03.706Z,28.67
2018-08-22T10:59:09.091Z,28.93
2018-08-22T11:02:15.030Z,29.19
2018-08-22T11:05:20.398Z,29.01
2018-08-22T11:08:25.774Z,29.19
2018-08-22T11:11:31.491Z,29.11
2018-08-22T11:14:36.929Z,29.17
2018-08-22T11:17:42.301Z,29.25
2018-08-22T11:20:50.386Z,29.49
2018-08-22T11:24:12.706Z,29.72
2018-08-22T11:27:35.142Z,29.84
2018-08-22T11:30:57.743Z,29.70
2018-08-22T11:34:20.167Z,29.81
2018-08-22T11:37:25.755Z,29.94
2018-08-22T11:40:31.134Z,29.96
2018-08-22T11:43:36.853Z,29.86
2018-08-22T11:46:42.315Z,29.81
2018-08-22T11:49:47.845Z,29.73
2018-08-22T11:52:53.193Z,29.53
2018-08-22T11:55:58.624Z,29.63
2018-08-22T11:59:04.181Z,29.60
2018-08-22T12:02:09.537Z,29.66
2018-08-22T12:05:14.922Z,29.67
2018-08-22T12:08:20.312Z,29.95
2018-08-22T12:11:25.675Z,30.52
2018-08-22T12:14:31.190Z,31.00
2018-08-22T12:17:36.549Z,31.49
2018-08-22T12:20:41.946Z,31.79
2018-08-22T12:23:47.319Z,31.94
2018-08-22T12:26:52.678Z,32.02
2018-08-22T12:29:58.049Z,32.00
2018-08-22T12:33:04.071Z,32.28
2018-08-22T12:36:10.427Z,32.85
2018-08-22T12:39:16.002Z,33.65
2018-08-22T12:42:32.824Z,34.34
2018-08-22T12:45:38.195Z,35.05
2018-08-22T12:48:44.265Z,35.04
2018-08-22T12:51:49.700Z,35.15
2018-08-22T12:54:55.223Z,35.95
2018-08-22T12:58:00.931Z,35.90
2018-08-22T13:01:06.967Z,36.39
2018-08-22T13:04:12.348Z,36.79
2018-08-22T13:07:17.696Z,37.48
2018-08-22T13:10:23.282Z,36.94
2018-08-22T13:13:28.629Z,36.73
2018-08-22T13:16:33.994Z,36.57
2018-08-22T13:19:39.453Z,36.21
2018-08-22T13:22:44.826Z,35.84
2018-08-22T13:25:50.410Z,35.08
2018-08-22T13:28:55.785Z,34.94
2018-08-22T13:32:01.162Z,34.22
2018-08-22T13:35:06.869Z,34.05
2018-08-22T13:38:12.226Z,33.58
2018-08-22T13:41:17.602Z,33.38
2018-08-22T13:44:22.964Z,32.48
2018-08-22T13:47:28.335Z,32.13
2018-08-22T13:50:33.858Z,31.76
2018-08-22T13:53:39.230Z,31.62
2018-08-22T13:56:44.711Z,31.57
2018-08-22T13:59:50.098Z,31.55
2018-08-22T14:02:56.026Z,31.70
2018-08-22T14:06:01.795Z,31.71
2018-08-22T14:09:10.355Z,31.60
2018-08-22T14:12:15.985Z,31.52
2018-08-22T14:15:21.391Z,31.47
2018-08-22T14:18:26.746Z,31.46
2018-08-22T14:21:32.150Z,31.36
2018-08-22T14:24:38.003Z,31.36
2018-08-22T14:27:43.390Z,31.16
2018-08-22T14:30:49.014Z,31.02
2018-08-22T14:33:54.374Z,30.82
2018-08-22T14:36:59.861Z,30.84
2018-08-22T14:40:05.251Z,30.83
2018-08-22T14:43:10.630Z,30.63
2018-08-22T14:46:16.004Z,30.72
2018-08-22T14:49:21.657Z,30.68
2018-08-22T14:52:27.038Z,30.62
2018-08-22T14:55:33.022Z,30.56
2018-08-22T14:58:38.608Z,30.50
2018-08-22T15:01:44.073Z,30.40
2018-08-22T15:04:49.422Z,30.28
2018-08-22T15:07:54.801Z,30.29
2018-08-22T15:11:00.158Z,30.37
2018-08-22T15:14:06.485Z,30.35
2018-08-22T15:17:11.858Z,30.29
2018-08-22T15:20:17.369Z,30.22
2018-08-22T15:23:22.950Z,30.17
2018-08-22T15:26:28.856Z,30.04
2018-08-22T15:29:34.394Z,30.01
2018-08-22T15:32:39.779Z,29.97
2018-08-22T15:35:45.262Z,30.00
2018-08-22T15:38:51.194Z,30.01
2018-08-22T15:41:57.015Z,30.02
2018-08-22T15:45:02.826Z,30.03
2018-08-22T15:48:08.214Z,30.01
2018-08-22T15:51:13.582Z,29.97
2018-08-22T15:54:18.949Z,30.01
2018-08-22T15:57:24.309Z,29.98
2018-08-22T16:00:37.423Z,29.92
2018-08-22T16:03:42.814Z,29.77
2018-08-22T16:07:21.827Z,29.79
2018-08-22T16:10:27.358Z,29.75
2018-08-22T16:13:33.114Z,29.78
2018-08-22T16:16:38.485Z,29.72
2018-08-22T16:19:43.842Z,29.68
2018-08-22T16:22:49.590Z,29.64
2018-08-22T16:25:55.627Z,29.60
2018-08-22T16:29:02.969Z,29.54
2018-08-22T16:32:08.374Z,29.54
2018-08-22T16:35:13.747Z,29.49
2018-08-22T16:38:19.469Z,29.44
2018-08-22T16:41:25.646Z,29.36
2018-08-22T16:44:31.018Z,29.34
2018-08-22T16:47:37.427Z,29.34
2018-08-22T16:50:42.921Z,29.29
2018-08-22T16:54:01.166Z,29.21
2018-08-22T16:57:06.542Z,29.10
2018-08-22T17:00:11.946Z,29.06
2018-08-22T17:03:17.289Z,28.95
2018-08-22T17:06:22.671Z,28.84
2018-08-22T17:09:30.167Z,28.70
2018-08-22T17:12:44.177Z,28.61
2018-08-22T17:15:49.537Z,28.57
2018-08-22T17:18:54.990Z,28.49
2018-08-22T17:22:00.367Z,28.41
2018-08-22T17:25:07.250Z,28.33
2018-08-22T17:28:12.723Z,28.23
2018-08-22T17:31:18.917Z,28.13
2018-08-22T17:34:24.323Z,28.13
2018-08-22T17:37:29.678Z,28.08
2018-08-22T17:40:35.163Z,28.02
2018-08-22T17:44:01.150Z,27.84
2018-08-22T17:47:06.542Z,27.73
2018-08-22T17:50:11.983Z,27.60
2018-08-22T17:53:17.338Z,27.47
2018-08-22T17:56:24.698Z,27.37
2018-08-22T17:59:30.094Z,27.30
2018-08-22T18:02:35.475Z,27.25
2018-08-22T18:05:40.850Z,27.17
2018-08-22T18:08:46.271Z,27.02
2018-08-22T18:11:51.726Z,26.88
2018-08-22T18:15:01.510Z,26.77
2018-08-22T18:18:07.270Z,26.69
2018-08-22T18:21:25.230Z,26.53
2018-08-22T18:24:58.322Z,26.49
2018-08-22T18:28:19.157Z,26.38
2018-08-22T18:31:24.520Z,26.26
2018-08-22T18:34:29.873Z,26.11
2018-08-22T18:37:35.221Z,26.01
2018-08-22T18:40:40.605Z,25.93
2018-08-22T18:43:46.267Z,25.86
2018-08-22T18:46:51.621Z,25.81
2018-08-22T18:49:56.957Z,25.70
2018-08-22T18:53:03.268Z,25.59
2018-08-22T18:56:17.884Z,25.55
2018-08-22T18:59:26.274Z,25.44
2018-08-22T19:02:31.860Z,25.35
2018-08-22T19:05:38.233Z,25.29
2018-08-22T19:08:43.606Z,25.22
2018-08-22T19:11:49.394Z,25.14
2018-08-22T19:14:54.722Z,25.08
2018-08-22T19:18:00.077Z,24.99
2018-08-22T19:21:06.802Z,24.87
2018-08-22T19:24:12.201Z,24.81
2018-08-22T19:27:17.569Z,24.76
2018-08-22T19:30:22.942Z,24.72
2018-08-22T19:33:28.895Z,24.68
2018-08-22T19:36:34.262Z,24.63
2018-08-22T19:40:06.504Z,24.56
2018-08-22T19:43:12.134Z,24.42
2018-08-22T19:46:17.506Z,24.36
2018-08-22T19:49:22.957Z,24.28
2018-08-22T19:52:28.726Z,24.11
2018-08-22T19:55:35.554Z,24.07
2018-08-22T19:58:41.139Z,24.03
2018-08-22T20:01:46.517Z,24.00
2018-08-22T20:04:51.870Z,23.95
2018-08-22T20:07:57.237Z,23.88
2018-08-22T20:11:02.634Z,23.82
2018-08-22T20:14:08.010Z,23.78
2018-08-22T20:17:17.430Z,23.74
2018-08-22T20:20:23.005Z,23.65
2018-08-22T20:23:28.435Z,23.61
2018-08-22T20:26:34.490Z,23.57
2018-08-22T20:29:39.944Z,23.41
2018-08-22T20:32:55.618Z,23.28
2018-08-22T20:36:00.979Z,23.28
2018-08-22T20:39:10.610Z,23.27
2018-08-22T20:42:15.985Z,23.26
2018-08-22T20:45:26.770Z,23.22
2018-08-22T20:48:32.134Z,23.20
2018-08-22T20:51:37.498Z,22.89
2018-08-22T20:54:42.886Z,22.88
2018-08-22T20:57:48.245Z,22.92
2018-08-22T21:00:53.662Z,22.92
2018-08-22T21:03:59.038Z,22.90
2018-08-22T21:07:04.821Z,22.86
2018-08-22T21:10:10.230Z,22.81
2018-08-22T21:13:20.598Z,22.76
2018-08-22T21:16:25.936Z,22.68
2018-08-22T21:19:31.373Z,22.62
2018-08-22T21:22:36.718Z,22.55
2018-08-22T21:25:43.891Z,22.45
2018-08-22T21:28:49.430Z,22.39
2018-08-22T21:31:54.767Z,22.33
2018-08-22T21:35:00.130Z,22.34
2018-08-22T21:38:09.533Z,22.31
2018-08-22T21:41:14.914Z,22.25
2018-08-22T21:44:21.522Z,22.22
2018-08-22T21:47:26.945Z,22.02
2018-08-22T21:50:32.402Z,22.03
2018-08-22T21:53:37.768Z,21.98
2018-08-22T21:56:43.167Z,21.92
2018-08-22T22:00:10.374Z,21.77
2018-08-22T22:03:19.834Z,21.77
